Time;durP1;ratioP1;P1;durP2;ratioP2;P2;SDS_P1;SDS_P2;PMS_P1;PMS_P2;Temp;Humidity;BMP_temperature;BMP_pressure;BME280_temperature;BME280_humidity;BME280_pressure;Samples;Min_cycle;Max_cycle;Signal;HPM_P1;HPM_P2
2021/01/07 00:00:24;;;;;;;15.13;8.38;;;2.50;99.90;;;;;;5071079;28;20067;-57
2021/01/07 00:02:50;;;;;;;16.83;8.30;;;2.50;99.90;;;;;;5058359;28;20537;-57
2021/01/07 00:05:15;;;;;;;15.45;8.20;;;2.50;99.90;;;;;;5054432;28;20135;-59
2021/01/07 00:07:41;;;;;;;18.20;8.55;;;2.50;99.90;;;;;;5060955;28;20021;-53
2021/01/07 00:10:07;;;;;;;13.55;8.27;;;2.50;99.90;;;;;;5063073;28;20454;-56
2021/01/07 00:12:33;;;;;;;20.17;8.60;;;2.50;99.90;;;;;;5059516;28;20149;-59
2021/01/07 00:14:59;;;;;;;18.55;9.10;;;2.40;99.90;;;;;;5056007;28;20104;-58
2021/01/07 00:17:24;;;;;;;17.00;8.63;;;2.40;99.90;;;;;;5057283;28;20103;-59
2021/01/07 00:19:50;;;;;;;18.35;8.40;;;2.40;99.90;;;;;;5062094;28;20024;-59
2021/01/07 00:22:16;;;;;;;20.10;9.13;;;2.40;99.90;;;;;;5056343;28;20028;-57
2021/01/07 00:24:41;;;;;;;17.55;8.98;;;2.40;99.90;;;;;;5060903;28;20521;-58
2021/01/07 00:27:07;;;;;;;20.20;8.85;;;2.30;99.90;;;;;;5058053;28;20795;-55
2021/01/07 00:29:33;;;;;;;15.82;9.00;;;2.40;99.90;;;;;;5053138;28;20428;-59
2021/01/07 00:31:59;;;;;;;18.45;9.40;;;2.40;99.90;;;;;;5068511;28;20017;-55
2021/01/07 00:34:24;;;;;;;16.95;9.70;;;2.30;99.90;;;;;;5061995;28;20029;-57
2021/01/07 00:36:56;;;;;;;16.98;9.50;;;2.30;99.90;;;;;;5052762;28;20025;-60
2021/01/07 00:39:23;;;;;;;15.70;9.18;;;2.20;99.90;;;;;;5062438;28;20036;-58
2021/01/07 00:41:56;;;;;;;18.17;9.82;;;2.30;99.90;;;;;;5069732;28;20069;-60
2021/01/07 00:44:21;;;;;;;20.95;9.82;;;2.20;99.90;;;;;;5069033;28;20032;-59
2021/01/07 00:46:47;;;;;;;21.05;9.93;;;2.10;99.90;;;;;;5054345;28;20024;-60
2021/01/07 00:49:13;;;;;;;19.10;10.25;;;2.10;99.90;;;;;;5059887;28;20052;-54
2021/01/07 00:51:38;;;;;;;21.52;10.60;;;2.10;99.90;;;;;;5052994;28;20025;-54
2021/01/07 00:54:04;;;;;;;20.13;10.20;;;2.10;99.90;;;;;;5053697;28;20025;-58
2021/01/07 00:56:35;;;;;;;22.52;10.88;;;2.00;99.90;;;;;;5064208;28;20044;-55
2021/01/07 00:59:01;;;;;;;17.63;10.30;;;2.00;99.90;;;;;;5070351;28;20024;-57
2021/01/07 01:01:27;;;;;;;21.23;10.32;;;1.90;99.90;;;;;;5059697;28;20028;-57
2021/01/07 01:03:52;;;;;;;17.17;10.48;;;1.90;99.90;;;;;;5062039;28;20035;-56
2021/01/07 01:06:18;;;;;;;20.00;10.18;;;1.90;99.90;;;;;;5057095;28;20028;-57
2021/01/07 01:08:43;;;;;;;19.60;10.77;;;1.80;99.90;;;;;;5055482;28;20071;-57
2021/01/07 01:11:09;;;;;;;21.27;10.68;;;1.80;99.90;;;;;;5051989;28;20131;-56
2021/01/07 01:13:35;;;;;;;18.10;10.52;;;1.80;99.90;;;;;;5068621;28;20095;-55
2021/01/07 01:16:01;;;;;;;17.25;10.18;;;1.80;99.90;;;;;;5064065;28;20036;-56
2021/01/07 01:18:26;;;;;;;21.88;10.95;;;1.80;99.90;;;;;;5062006;28;20024;-55
2021/01/07 01:20:52;;;;;;;21.90;10.25;;;1.70;99.90;;;;;;5071121;28;20401;-58
2021/01/07 01:23:18;;;;;;;18.08;9.93;;;1.70;99.90;;;;;;5052261;28;20033;-57
2021/01/07 01:25:43;;;;;;;24.08;10.82;;;1.70;99.90;;;;;;5059197;28;20055;-60
2021/01/07 01:28:09;;;;;;;17.90;10.80;;;1.70;99.90;;;;;;5056650;28;20385;-58
2021/01/07 01:30:35;;;;;;;17.73;11.20;;;1.70;99.90;;;;;;5053902;28;20799;-59
2021/01/07 01:33:00;;;;;;;20.77;11.82;;;1.70;99.90;;;;;;5068928;28;20024;-59
2021/01/07 01:35:26;;;;;;;19.20;10.80;;;1.70;99.90;;;;;;5056843;28;20021;-57
2021/01/07 01:37:52;;;;;;;19.63;11.73;;;1.70;99.90;;;;;;5066676;28;20078;-55
2021/01/07 01:40:17;;;;;;;27.08;12.23;;;1.70;99.90;;;;;;5051710;28;20021;-55
2021/01/07 01:42:43;;;;;;;24.42;12.05;;;1.80;99.90;;;;;;5064452;28;20040;-56
2021/01/07 01:45:09;;;;;;;23.08;11.60;;;1.80;99.90;;;;;;5062411;28;20021;-56
2021/01/07 01:47:35;;;;;;;25.83;11.73;;;1.70;99.90;;;;;;5067109;28;20100;-56
2021/01/07 01:50:00;;;;;;;22.65;12.20;;;1.70;99.90;;;;;;5072132;28;20107;-58
2021/01/07 01:52:26;;;;;;;21.75;12.20;;;1.70;99.90;;;;;;5070313;28;20020;-54
2021/01/07 01:54:52;;;;;;;20.55;12.48;;;1.70;99.90;;;;;;5065654;28;20025;-57
2021/01/07 01:57:19;;;;;;;24.30;12.02;;;1.80;99.90;;;;;;5059548;28;20463;-59
2021/01/07 01:59:45;;;;;;;23.75;12.68;;;1.80;99.90;;;;;;5055150;28;20032;-57
2021/01/07 02:02:14;;;;;;;22.63;12.32;;;1.80;99.90;;;;;;5056847;28;20025;-57
2021/01/07 02:04:40;;;;;;;26.13;13.00;;;1.80;99.90;;;;;;5052659;28;20434;-57
2021/01/07 02:07:12;;;;;;;21.20;12.07;;;1.80;99.90;;;;;;5068370;28;20753;-59
2021/01/07 02:09:41;;;;;;;20.35;12.65;;;1.80;99.90;;;;;;5069553;28;20033;-59
2021/01/07 02:12:07;;;;;;;23.55;12.90;;;1.80;99.90;;;;;;5061352;28;20536;-57
2021/01/07 02:14:33;;;;;;;21.45;12.00;;;1.80;99.90;;;;;;5070652;28;20024;-58
2021/01/07 02:16:58;;;;;;;25.92;12.75;;;1.80;99.90;;;;;;5065920;28;20035;-59
2021/01/07 02:19:24;;;;;;;21.40;12.88;;;1.80;99.90;;;;;;5070668;28;20025;-60
2021/01/07 02:21:50;;;;;;;22.15;12.75;;;1.80;99.90;;;;;;5069836;28;20052;-57
2021/01/07 02:24:17;;;;;;;24.52;13.70;;;1.70;99.90;;;;;;5055135;28;20025;-60
2021/01/07 02:26:44;;;;;;;20.33;12.45;;;1.80;99.90;;;;;;5056178;28;20025;-58
2021/01/07 02:29:11;;;;;;;22.17;12.75;;;1.80;99.90;;;;;;5054771;28;20843;-60
2021/01/07 02:31:36;;;;;;;21.60;13.20;;;1.80;99.90;;;;;;5055963;28;20474;-58
2021/01/07 02:34:02;;;;;;;26.38;13.93;;;1.80;99.90;;;;;;5051691;28;20028;-58
2021/01/07 02:36:28;;;;;;;25.45;13.35;;;1.80;99.90;;;;;;5067868;28;20092;-54
2021/01/07 02:38:54;;;;;;;24.45;12.85;;;1.80;99.90;;;;;;5062485;28;20029;-57
2021/01/07 02:41:20;;;;;;;20.13;13.25;;;1.90;99.90;;;;;;5068914;28;20029;-55
2021/01/07 02:43:46;;;;;;;25.17;13.90;;;1.90;99.90;;;;;;5067386;28;20078;-57
2021/01/07 02:46:11;;;;;;;23.25;13.80;;;1.90;99.90;;;;;;5070148;28;20123;-58
2021/01/07 02:48:37;;;;;;;25.98;14.10;;;1.90;99.90;;;;;;5054004;28;20597;-57
2021/01/07 02:51:03;;;;;;;23.52;13.80;;;1.80;99.90;;;;;;5065257;28;20024;-57
2021/01/07 02:53:29;;;;;;;26.73;13.75;;;1.80;99.90;;;;;;5061754;28;20485;-54
2021/01/07 02:55:54;;;;;;;22.00;13.57;;;1.80;99.90;;;;;;5057684;28;20020;-60
2021/01/07 02:58:20;;;;;;;28.48;14.13;;;1.80;99.90;;;;;;5072632;28;20032;-54
2021/01/07 03:00:46;;;;;;;25.20;13.82;;;1.80;99.90;;;;;;5067748;28;20465;-57
2021/01/07 03:03:11;;;;;;;23.65;14.80;;;1.90;99.90;;;;;;5053170;28;20033;-55
2021/01/07 03:05:38;;;;;;;23.38;13.75;;;1.90;99.90;;;;;;5065195;28;20754;-58
2021/01/07 03:08:04;;;;;;;25.63;14.20;;;1.90;99.90;;;;;;5063865;28;20024;-56
2021/01/07 03:10:29;;;;;;;27.80;14.68;;;1.90;99.90;;;;;;5054386;28;20025;-55
2021/01/07 03:12:55;;;;;;;26.38;13.85;;;1.90;99.90;;;;;;5059332;28;20062;-56
2021/01/07 03:15:21;;;;;;;22.10;14.27;;;1.90;99.90;;;;;;5070264;28;20024;-58
2021/01/07 03:17:47;;;;;;;24.45;14.25;;;1.90;99.90;;;;;;5071198;28;20343;-55
2021/01/07 03:20:14;;;;;;;24.80;13.88;;;1.90;99.90;;;;;;5063092;28;20021;-59
2021/01/07 03:22:41;;;;;;;24.70;14.18;;;1.90;99.90;;;;;;5065301;28;20113;-58
2021/01/07 03:25:08;;;;;;;24.08;14.10;;;1.90;99.90;;;;;;5071386;28;20017;-59
2021/01/07 03:27:34;;;;;;;27.65;15.00;;;1.90;99.90;;;;;;5066713;28;20082;-58
2021/01/07 03:30:00;;;;;;;25.98;15.15;;;1.90;99.90;;;;;;5070975;28;20370;-55
2021/01/07 03:32:26;;;;;;;24.92;14.70;;;1.90;99.90;;;;;;5066141;28;20028;-56
2021/01/07 03:34:52;;;;;;;27.00;15.23;;;1.90;99.90;;;;;;5056571;28;20021;-54
2021/01/07 03:37:18;;;;;;;26.73;15.70;;;1.90;99.90;;;;;;5064261;28;20031;-61
2021/01/07 03:39:44;;;;;;;29.15;16.20;;;1.90;99.90;;;;;;5064283;28;20021;-56
2021/01/07 03:42:10;;;;;;;27.02;16.40;;;2.00;99.90;;;;;;5055996;28;20075;-57
2021/01/07 03:44:36;;;;;;;26.20;15.75;;;1.90;99.90;;;;;;5056039;28;20425;-54
2021/01/07 03:47:02;;;;;;;27.92;17.13;;;1.90;99.90;;;;;;5062651;28;20111;-60
2021/01/07 03:49:28;;;;;;;30.20;16.48;;;2.00;99.90;;;;;;5081872;28;20438;-58
2021/01/07 03:51:53;;;;;;;30.60;17.45;;;1.90;99.90;;;;;;5053529;28;20035;-57
2021/01/07 03:54:19;;;;;;;28.48;17.83;;;1.80;99.90;;;;;;5056147;28;20363;-58
2021/01/07 03:56:45;;;;;;;35.00;16.55;;;1.80;99.90;;;;;;5069444;28;20478;-53
2021/01/07 03:59:10;;;;;;;32.33;18.35;;;1.90;99.90;;;;;;5061513;28;20414;-55
2021/01/07 04:01:36;;;;;;;29.48;16.90;;;1.80;99.90;;;;;;5056341;28;20037;-57
2021/01/07 04:04:02;;;;;;;30.95;18.00;;;1.80;99.90;;;;;;5052854;28;20024;-57
2021/01/07 04:06:27;;;;;;;29.20;17.30;;;1.80;99.90;;;;;;5063700;28;20030;-56
2021/01/07 04:08:53;;;;;;;29.25;17.48;;;1.80;99.90;;;;;;5072096;28;20017;-57
2021/01/07 04:11:18;;;;;;;30.42;18.27;;;1.80;99.90;;;;;;5064401;28;20033;-56
2021/01/07 04:13:44;;;;;;;32.03;18.25;;;1.80;99.90;;;;;;5061329;28;20401;-56
2021/01/07 04:16:10;;;;;;;30.48;17.83;;;1.70;99.90;;;;;;5062001;28;20025;-53
2021/01/07 04:18:36;;;;;;;29.30;18.70;;;1.70;99.90;;;;;;5064158;28;20055;-57
2021/01/07 04:21:03;;;;;;;36.78;17.75;;;1.70;99.90;;;;;;5066808;28;20024;-55
2021/01/07 04:23:28;;;;;;;34.13;17.98;;;1.70;99.90;;;;;;5066326;28;20394;-57
2021/01/07 04:25:54;;;;;;;34.97;19.00;;;1.80;99.90;;;;;;5058600;28;20033;-57
2021/01/07 04:28:20;;;;;;;33.75;19.73;;;1.70;99.90;;;;;;5056290;28;20096;-56
2021/01/07 04:30:46;;;;;;;34.90;19.05;;;1.70;99.90;;;;;;5059191;28;20103;-56
2021/01/07 04:33:12;;;;;;;30.83;19.70;;;1.70;99.90;;;;;;5054661;28;20037;-54
2021/01/07 04:35:38;;;;;;;35.88;19.20;;;1.60;99.90;;;;;;5058126;28;20484;-60
2021/01/07 04:38:03;;;;;;;38.22;19.65;;;1.60;99.90;;;;;;5067551;28;20111;-56
2021/01/07 04:40:29;;;;;;;38.42;20.17;;;1.70;99.90;;;;;;5057159;28;20029;-58
2021/01/07 04:42:56;;;;;;;35.15;18.88;;;1.70;99.90;;;;;;5053847;28;20083;-55
2021/01/07 04:45:22;;;;;;;36.53;20.25;;;1.70;99.90;;;;;;5066091;28;20437;-57
2021/01/07 04:47:50;;;;;;;32.10;19.05;;;1.60;99.90;;;;;;5062560;28;20036;-58
2021/01/07 04:50:17;;;;;;;36.97;20.17;;;1.70;99.90;;;;;;5064573;28;20024;-54
2021/01/07 04:52:43;;;;;;;35.47;21.40;;;1.80;99.90;;;;;;5066336;28;20104;-54
2021/01/07 04:55:12;;;;;;;37.58;19.35;;;1.80;99.90;;;;;;5058893;28;20028;-56
2021/01/07 04:57:39;;;;;;;39.25;20.75;;;1.80;99.90;;;;;;5055597;28;20726;-58
2021/01/07 05:00:08;;;;;;;35.08;20.60;;;1.70;99.90;;;;;;5060188;28;20051;-57
2021/01/07 05:02:34;;;;;;;38.80;20.63;;;1.70;99.90;;;;;;5064614;28;20025;-57
2021/01/07 05:05:00;;;;;;;37.45;21.00;;;1.70;99.90;;;;;;5058347;28;20024;-58
2021/01/07 05:07:26;;;;;;;35.63;20.25;;;1.70;99.90;;;;;;5052552;28;20028;-57
2021/01/07 05:10:04;;;;;;;37.78;20.35;;;1.60;99.90;;;;;;5059286;28;20070;-57
2021/01/07 05:12:30;;;;;;;36.58;20.92;;;1.60;99.90;;;;;;5061833;28;20044;-56
2021/01/07 05:14:56;;;;;;;38.15;20.83;;;1.60;99.90;;;;;;5058844;28;20422;-53
2021/01/07 05:17:22;;;;;;;41.13;21.70;;;1.70;99.90;;;;;;5059020;28;20032;-53
2021/01/07 05:19:47;;;;;;;38.05;21.95;;;1.70;99.90;;;;;;5057401;28;20053;-57
2021/01/07 05:22:13;;;;;;;42.25;22.63;;;1.60;99.90;;;;;;5063829;28;20028;-54
2021/01/07 05:24:40;;;;;;;38.95;21.65;;;1.60;99.90;;;;;;5061197;28;20034;-55
2021/01/07 05:27:11;;;;;;;44.65;21.75;;;1.70;99.90;;;;;;5058418;28;20029;-55
2021/01/07 05:29:41;;;;;;;41.90;22.27;;;1.70;99.90;;;;;;5051805;28;20459;-54
2021/01/07 05:32:08;;;;;;;44.03;24.13;;;1.70;99.90;;;;;;5061842;28;20027;-56
2021/01/07 05:34:49;;;;;;;45.25;22.33;;;1.70;99.90;;;;;;5059421;28;20027;-57
2021/01/07 05:37:20;;;;;;;43.40;23.83;;;1.70;99.90;;;;;;5065909;28;20027;-55
2021/01/07 05:39:49;;;;;;;44.65;22.60;;;1.70;99.90;;;;;;5061289;28;20060;-56
2021/01/07 05:42:16;;;;;;;42.45;22.48;;;1.70;99.90;;;;;;5057876;28;20107;-58
2021/01/07 05:44:46;;;;;;;38.63;22.00;;;1.70;99.90;;;;;;5065999;28;20025;-56
2021/01/07 05:47:29;;;;;;;45.63;23.70;;;1.70;99.90;;;;;;5070585;28;20017;-55
2021/01/07 05:49:56;;;;;;;43.80;24.15;;;1.60;99.90;;;;;;5067296;28;20024;-55
2021/01/07 05:52:23;;;;;;;44.95;22.17;;;1.60;99.90;;;;;;5065942;28;20458;-55
2021/01/07 05:54:53;;;;;;;44.38;21.85;;;1.60;99.90;;;;;;5054722;28;20112;-55
2021/01/07 05:57:21;;;;;;;39.75;22.75;;;1.60;99.90;;;;;;5070422;28;20028;-55
2021/01/07 05:59:50;;;;;;;42.88;21.58;;;1.60;99.90;;;;;;5051383;28;20044;-58
2021/01/07 06:02:17;;;;;;;39.17;21.17;;;1.70;99.90;;;;;;5051935;28;20025;-58
2021/01/07 06:04:46;;;;;;;39.30;22.70;;;1.60;99.90;;;;;;5055348;28;20063;-57
2021/01/07 06:07:15;;;;;;;41.78;20.45;;;1.70;99.90;;;;;;5060665;28;20054;-56
2021/01/07 06:09:45;;;;;;;43.70;24.25;;;1.60;99.90;;;;;;5069278;28;20036;-55
2021/01/07 06:12:12;;;;;;;42.55;22.55;;;1.60;99.90;;;;;;5057151;28;20389;-56
2021/01/07 06:14:43;;;;;;;43.22;23.42;;;1.60;99.90;;;;;;5054136;28;20082;-57
2021/01/07 06:17:09;;;;;;;43.13;23.77;;;1.60;99.90;;;;;;5059567;28;20059;-58
2021/01/07 06:19:37;;;;;;;41.83;23.30;;;1.70;99.90;;;;;;5063791;28;20081;-56
2021/01/07 06:22:09;;;;;;;45.47;22.52;;;1.60;99.90;;;;;;5061767;28;20420;-55
2021/01/07 06:24:37;;;;;;;42.03;23.98;;;1.60;99.90;;;;;;5062359;28;20033;-58
2021/01/07 06:27:29;;;;;;;41.00;21.65;;;1.60;99.90;;;;;;5065000;28;20025;-58
2021/01/07 06:30:20;;;;;;;41.85;23.73;;;1.60;99.90;;;;;;5058742;28;20025;-53
2021/01/07 06:32:59;;;;;;;43.08;22.30;;;1.60;99.90;;;;;;5058437;28;20056;-58
2021/01/07 06:35:39;;;;;;;47.72;23.52;;;1.60;99.90;;;;;;5062517;28;20033;-58
2021/01/07 06:38:06;;;;;;;42.20;23.85;;;1.50;99.90;;;;;;5062378;28;20025;-57
2021/01/07 06:40:39;;;;;;;44.25;23.88;;;1.50;99.90;;;;;;5064650;28;20119;-55
2021/01/07 06:43:13;;;;;;;48.22;24.20;;;1.50;99.90;;;;;;5061858;28;20020;-57
2021/01/07 06:45:47;;;;;;;44.78;22.85;;;1.50;99.90;;;;;;5055088;28;20465;-53
2021/01/07 06:48:13;;;;;;;46.03;23.17;;;1.50;99.90;;;;;;5071189;28;20025;-57
2021/01/07 06:50:41;;;;;;;46.63;24.38;;;1.50;99.90;;;;;;5060343;28;20036;-58
2021/01/07 06:53:06;;;;;;;48.15;24.13;;;1.50;99.90;;;;;;5062347;28;20455;-53
2021/01/07 06:55:32;;;;;;;50.95;25.15;;;1.50;99.90;;;;;;5068880;28;20025;-58
2021/01/07 06:57:58;;;;;;;52.92;25.58;;;1.50;99.90;;;;;;5073559;28;20474;-58
2021/01/07 07:00:27;;;;;;;45.50;23.27;;;1.50;99.90;;;;;;5072124;28;20044;-57
2021/01/07 07:03:00;;;;;;;50.80;25.10;;;1.40;99.90;;;;;;5059459;28;20025;-59
2021/01/07 07:05:34;;;;;;;45.45;24.00;;;1.40;99.90;;;;;;5058099;28;20057;-57
2021/01/07 07:08:06;;;;;;;46.95;23.92;;;1.40;99.90;;;;;;5061395;28;20025;-57
2021/01/07 07:10:34;;;;;;;47.70;23.25;;;1.50;99.90;;;;;;5062707;28;20027;-56
2021/01/07 07:13:14;;;;;;;47.33;22.65;;;1.50;99.90;;;;;;5058456;28;20028;-55
2021/01/07 07:15:40;;;;;;;50.25;22.15;;;1.40;99.90;;;;;;5065213;28;21528;-59
2021/01/07 07:18:06;;;;;;;54.90;24.63;;;1.50;99.90;;;;;;5058276;28;20017;-56
2021/01/07 07:20:39;;;;;;;48.85;23.23;;;1.50;99.90;;;;;;5056314;28;20472;-56
2021/01/07 07:23:21;;;;;;;49.75;23.30;;;1.50;99.90;;;;;;5058613;28;20033;-54
2021/01/07 07:25:52;;;;;;;45.60;23.73;;;1.40;99.90;;;;;;5062114;28;20106;-56
2021/01/07 07:28:22;;;;;;;48.55;23.65;;;1.40;99.90;;;;;;5063640;28;20025;-56
2021/01/07 07:30:48;;;;;;;52.47;27.38;;;1.40;99.90;;;;;;5054929;28;20024;-57
2021/01/07 07:33:35;;;;;;;50.90;22.52;;;1.40;99.90;;;;;;5060753;28;20016;-56
2021/01/07 07:36:01;;;;;;;63.00;26.90;;;1.30;99.90;;;;;;5063754;28;20029;-58
2021/01/07 07:38:38;;;;;;;53.33;24.10;;;1.30;99.90;;;;;;5057325;28;20040;-54
2021/01/07 07:41:10;;;;;;;52.80;24.52;;;1.40;99.90;;;;;;5059325;28;20028;-58
2021/01/07 07:43:37;;;;;;;46.92;23.23;;;1.40;99.90;;;;;;5059545;28;20370;-58
2021/01/07 07:46:05;;;;;;;49.42;23.50;;;1.40;99.90;;;;;;5057163;28;20099;-54
2021/01/07 07:48:32;;;;;;;52.75;25.27;;;1.40;99.90;;;;;;5063567;28;20027;-55
2021/01/07 07:51:05;;;;;;;45.60;21.42;;;1.40;99.90;;;;;;5056008;28;20025;-58
2021/01/07 07:53:31;;;;;;;48.13;23.65;;;1.40;99.90;;;;;;5066555;28;20026;-58
2021/01/07 07:55:57;;;;;;;49.10;21.90;;;1.40;99.90;;;;;;5063756;28;20024;-58
2021/01/07 07:58:22;;;;;;;47.92;22.65;;;1.40;99.90;;;;;;5060433;28;20024;-57
2021/01/07 08:00:50;;;;;;;48.03;23.38;;;1.40;99.90;;;;;;5052308;28;20040;-55
2021/01/07 08:03:27;;;;;;;49.47;23.98;;;1.40;99.90;;;;;;5068647;28;20032;-53
2021/01/07 08:05:54;;;;;;;52.95;23.48;;;1.40;99.90;;;;;;5062939;28;20032;-58
2021/01/07 08:08:27;;;;;;;48.85;22.58;;;1.30;99.90;;;;;;5057463;28;20078;-57
2021/01/07 08:10:54;;;;;;;47.70;22.63;;;1.40;99.90;;;;;;5054817;28;20052;-57
2021/01/07 08:13:22;;;;;;;53.45;23.52;;;1.40;99.90;;;;;;5053451;28;20336;-54
2021/01/07 08:15:49;;;;;;;49.15;24.58;;;1.40;99.90;;;;;;5072308;28;20044;-56
2021/01/07 08:18:24;;;;;;;47.95;23.25;;;1.40;99.90;;;;;;5073130;28;20024;-59
2021/01/07 08:20:52;;;;;;;50.85;25.15;;;1.50;99.90;;;;;;5064796;28;20032;-53
2021/01/07 08:23:19;;;;;;;51.53;24.80;;;1.40;99.90;;;;;;5059038;28;20100;-54
2021/01/07 08:25:52;;;;;;;48.55;22.70;;;1.40;99.90;;;;;;5059896;28;20048;-58
2021/01/07 08:28:24;;;;;;;53.28;22.75;;;1.50;99.90;;;;;;5063072;28;20025;-54
2021/01/07 08:30:56;;;;;;;49.53;24.08;;;1.40;99.90;;;;;;5070808;28;20035;-60
2021/01/07 08:33:23;;;;;;;51.63;23.42;;;1.50;99.90;;;;;;5063659;28;20095;-56
2021/01/07 08:35:51;;;;;;;48.33;23.98;;;1.50;99.90;;;;;;5066416;28;20028;-57
2021/01/07 08:38:27;;;;;;;48.17;23.17;;;1.50;99.90;;;;;;5062075;28;20078;-55
2021/01/07 08:41:22;;;;;;;46.92;23.02;;;1.50;99.90;;;;;;5051817;28;20111;-57
2021/01/07 08:43:52;;;;;;;42.17;22.02;;;1.50;99.90;;;;;;5062439;28;20561;-56
2021/01/07 08:46:19;;;;;;;44.70;21.52;;;1.50;99.90;;;;;;5061145;28;20137;-58
2021/01/07 08:48:56;;;;;;;43.67;21.13;;;1.50;99.90;;;;;;5057712;28;20077;-56
2021/01/07 08:51:23;;;;;;;41.92;22.27;;;1.50;99.90;;;;;;5052524;28;20164;-54
2021/01/07 08:53:53;;;;;;;48.25;21.55;;;1.50;99.90;;;;;;5052912;28;20021;-56
2021/01/07 08:56:48;;;;;;;43.63;22.48;;;1.60;99.90;;;;;;5061659;28;20063;-57
2021/01/07 08:59:27;;;;;;;45.72;23.42;;;1.60;99.90;;;;;;5057083;28;20458;-57
2021/01/07 09:02:02;;;;;;;45.40;22.92;;;1.60;99.90;;;;;;5066405;28;20051;-57
2021/01/07 09:04:35;;;;;;;50.25;24.35;;;1.60;99.90;;;;;;5060530;28;20036;-59
2021/01/07 09:07:13;;;;;;;48.30;23.60;;;1.60;99.90;;;;;;5053748;28;20021;-55
2021/01/07 09:09:43;;;;;;;47.08;21.55;;;1.70;99.90;;;;;;5067050;28;20029;-57
2021/01/07 09:12:27;;;;;;;44.30;22.20;;;1.60;99.90;;;;;;5068909;28;20087;-57
2021/01/07 09:14:53;;;;;;;45.55;22.13;;;1.70;99.90;;;;;;5065369;28;20052;-55
2021/01/07 09:17:25;;;;;;;44.67;21.90;;;1.70;99.90;;;;;;5070751;28;20543;-55
2021/01/07 09:19:51;;;;;;;41.40;21.35;;;1.70;99.90;;;;;;5058675;28;20047;-57
2021/01/07 09:22:19;;;;;;;46.35;22.15;;;1.70;99.90;;;;;;5061164;28;20121;-57
2021/01/07 09:24:44;;;;;;;45.78;21.05;;;1.80;99.90;;;;;;5058394;28;20041;-57
2021/01/07 09:27:15;;;;;;;45.35;22.20;;;1.70;99.90;;;;;;5055504;28;20060;-58
2021/01/07 09:29:41;;;;;;;47.42;21.52;;;1.70;99.90;;;;;;5055769;28;20083;-55
2021/01/07 09:32:09;;;;;;;48.08;22.45;;;1.70;99.90;;;;;;5055782;28;20037;-56
2021/01/07 09:34:35;;;;;;;45.70;21.70;;;1.80;99.90;;;;;;5065737;28;20028;-57
2021/01/07 09:37:04;;;;;;;43.85;20.80;;;1.80;99.90;;;;;;5065741;28;20028;-58
2021/01/07 09:39:30;;;;;;;43.20;20.52;;;1.80;99.90;;;;;;5051800;28;20020;-61
2021/01/07 09:41:56;;;;;;;41.72;20.58;;;1.80;99.90;;;;;;5062029;28;20028;-60
2021/01/07 09:44:21;;;;;;;46.05;21.88;;;1.80;99.90;;;;;;5068159;28;20104;-59
2021/01/07 09:46:51;;;;;;;45.53;19.98;;;1.80;99.90;;;;;;5052716;28;20039;-55
2021/01/07 09:49:17;;;;;;;43.17;21.92;;;1.90;99.90;;;;;;5060125;28;20090;-59
2021/01/07 09:51:42;;;;;;;48.83;21.50;;;1.90;99.90;;;;;;5063974;28;20028;-58
2021/01/07 09:54:08;;;;;;;43.55;21.90;;;1.90;99.90;;;;;;5053971;28;20020;-55
2021/01/07 09:56:34;;;;;;;44.00;22.05;;;1.80;99.90;;;;;;5050825;28;20031;-58
2021/01/07 09:58:59;;;;;;;45.42;22.85;;;1.80;99.90;;;;;;5059162;28;20021;-56
2021/01/07 10:01:25;;;;;;;45.97;21.23;;;1.80;99.90;;;;;;5057443;28;20040;-57
2021/01/07 10:03:51;;;;;;;47.72;22.10;;;1.80;99.90;;;;;;5059357;28;20029;-59
2021/01/07 10:06:16;;;;;;;46.75;22.17;;;1.80;99.90;;;;;;5055751;28;20098;-60
2021/01/07 10:08:42;;;;;;;42.55;20.92;;;1.80;99.90;;;;;;5071374;28;20094;-56
2021/01/07 10:11:08;;;;;;;44.13;21.98;;;1.80;99.90;;;;;;5067498;28;20052;-57
2021/01/07 10:13:34;;;;;;;45.90;21.05;;;1.80;99.90;;;;;;5074588;28;20713;-57
2021/01/07 10:16:00;;;;;;;41.65;20.88;;;1.80;99.90;;;;;;5069855;28;20438;-57
2021/01/07 10:18:26;;;;;;;43.28;20.88;;;1.90;99.90;;;;;;5068770;28;20052;-56
2021/01/07 10:20:58;;;;;;;40.42;20.65;;;1.90;99.90;;;;;;5062487;28;20039;-59
2021/01/07 10:23:24;;;;;;;37.53;20.05;;;1.90;99.90;;;;;;5069259;28;20051;-58
2021/01/07 10:25:51;;;;;;;36.15;18.48;;;1.90;99.90;;;;;;5059899;28;20462;-58
2021/01/07 10:28:18;;;;;;;36.65;19.88;;;2.00;99.90;;;;;;5059846;28;20051;-58
2021/01/07 10:30:45;;;;;;;37.08;18.70;;;2.00;99.90;;;;;;5061668;28;20074;-59
2021/01/07 10:33:12;;;;;;;38.88;18.55;;;2.10;99.90;;;;;;5070514;28;20028;-60
2021/01/07 10:35:38;;;;;;;33.55;18.42;;;2.20;99.90;;;;;;5064581;28;20033;-57
2021/01/07 10:38:05;;;;;;;35.65;18.83;;;2.10;99.90;;;;;;5062275;28;20477;-59
2021/01/07 10:40:37;;;;;;;34.08;18.13;;;2.10;99.90;;;;;;5055616;28;20478;-58
2021/01/07 10:43:05;;;;;;;31.00;16.35;;;2.20;99.90;;;;;;5062398;28;20492;-55
2021/01/07 10:45:31;;;;;;;32.78;17.70;;;2.10;99.90;;;;;;5070258;28;20031;-57
2021/01/07 10:47:59;;;;;;;38.35;17.38;;;2.20;99.90;;;;;;5074927;28;20514;-58
2021/01/07 10:50:28;;;;;;;36.03;18.40;;;2.20;99.90;;;;;;5074137;28;20029;-58
2021/01/07 10:53:29;;;;;;;36.10;17.30;;;2.20;99.90;;;;;;5074704;28;20085;-56
2021/01/07 10:56:03;;;;;;;36.08;17.30;;;2.20;99.90;;;;;;5073606;28;20090;-58
2021/01/07 10:59:07;;;;;;;35.38;16.60;;;2.20;99.90;;;;;;5074378;28;20035;-57
2021/01/07 11:01:44;;;;;;;32.45;15.82;;;2.20;99.90;;;;;;5072812;28;20032;-57
2021/01/07 11:04:25;;;;;;;32.05;16.92;;;2.20;99.90;;;;;;5074728;28;20090;-58
2021/01/07 11:07:00;;;;;;;34.67;16.75;;;2.30;99.90;;;;;;5073760;28;20031;-58
2021/01/07 11:09:30;;;;;;;;;;;2.30;99.90;;;;;;5075070;28;20052;-58
2021/01/07 11:12:11;;;;;;;30.88;16.00;;;2.40;99.90;;;;;;5064668;28;19917;-57
2021/01/07 11:14:51;;;;;;;30.15;15.65;;;2.40;99.90;;;;;;5074414;28;20028;-57
2021/01/07 11:17:21;;;;;;;31.67;15.48;;;2.50;99.90;;;;;;5073678;28;20021;-57
2021/01/07 11:19:50;;;;;;;31.02;16.48;;;2.50;99.90;;;;;;5055476;28;20051;-58
2021/01/07 11:22:26;;;;;;;30.05;15.48;;;2.40;99.90;;;;;;5053315;28;20040;-58
2021/01/07 11:24:53;;;;;;;30.45;16.30;;;2.40;99.90;;;;;;5054243;28;20033;-57
2021/01/07 11:27:21;;;;;;;33.33;16.95;;;2.40;99.90;;;;;;5066845;28;20032;-58
2021/01/07 11:29:47;;;;;;;33.03;15.13;;;2.40;99.90;;;;;;5074070;28;20028;-58
2021/01/07 11:32:14;;;;;;;28.90;16.33;;;2.50;99.90;;;;;;5073309;28;20028;-57
2021/01/07 11:34:40;;;;;;;28.95;15.50;;;2.40;99.90;;;;;;5071943;28;20025;-59
2021/01/07 11:37:33;;;;;;;30.50;15.90;;;2.50;99.90;;;;;;5051978;28;20055;-58
2021/01/07 11:40:32;;;;;;;38.90;17.00;;;2.60;99.90;;;;;;5053471;28;20033;-57
2021/01/07 11:43:35;;;;;;;31.73;16.05;;;2.60;99.90;;;;;;5064443;28;20044;-56
2021/01/07 11:46:03;;;;;;;30.17;15.88;;;2.60;99.90;;;;;;5072905;28;20028;-58
2021/01/07 11:48:31;;;;;;;30.90;15.93;;;2.60;99.90;;;;;;5073922;28;20017;-58
2021/01/07 11:51:02;;;;;;;30.42;15.70;;;2.60;99.90;;;;;;5072948;28;20031;-59
2021/01/07 11:53:28;;;;;;;32.80;15.23;;;2.70;99.90;;;;;;5072524;28;20032;-58
2021/01/07 11:55:56;;;;;;;28.38;14.90;;;2.70;99.90;;;;;;5065992;28;20008;-58
2021/01/07 11:58:24;;;;;;;27.27;15.40;;;2.60;99.90;;;;;;5061124;28;20035;-58
2021/01/07 12:00:57;;;;;;;25.65;15.00;;;2.70;99.90;;;;;;5061375;28;20043;-56
2021/01/07 12:03:28;;;;;;;27.40;15.57;;;2.60;99.90;;;;;;5066220;28;20096;-57
2021/01/07 12:05:59;;;;;;;29.92;15.48;;;2.60;99.90;;;;;;5053602;28;20025;-58
2021/01/07 12:08:59;;;;;;;29.75;16.08;;;2.60;99.90;;;;;;5057797;28;20020;-56
2021/01/07 12:11:44;;;;;;;31.67;15.57;;;2.70;99.90;;;;;;5062831;28;20052;-58
2021/01/07 12:14:11;;;;;;;29.52;16.23;;;2.70;99.90;;;;;;5067047;28;20043;-59
2021/01/07 12:16:50;;;;;;;33.78;15.52;;;2.70;99.90;;;;;;5057099;28;20033;-58
2021/01/07 12:19:16;;;;;;;27.95;15.43;;;2.80;99.90;;;;;;5058449;28;20029;-58
2021/01/07 12:21:42;;;;;;;29.00;15.23;;;2.80;99.90;;;;;;5061260;28;20032;-58
2021/01/07 12:24:11;;;;;;;31.02;15.93;;;2.80;99.90;;;;;;5052397;28;20025;-59
2021/01/07 12:26:37;;;;;;;27.48;15.70;;;2.80;99.90;;;;;;5060507;28;20074;-58
2021/01/07 12:29:03;;;;;;;31.38;16.42;;;2.80;99.90;;;;;;5071785;28;20415;-60
2021/01/07 12:31:31;;;;;;;32.80;16.58;;;2.80;99.90;;;;;;5066301;28;20518;-58
2021/01/07 12:34:23;;;;;;;28.35;16.45;;;2.80;99.90;;;;;;5060236;28;21630;-56
2021/01/07 12:37:10;;;;;;;28.73;15.35;;;2.90;99.90;;;;;;5067594;28;20036;-56
2021/01/07 12:39:40;;;;;;;29.33;15.27;;;2.90;99.90;;;;;;5063236;28;20032;-56
2021/01/07 12:42:11;;;;;;;31.75;18.70;;;2.90;99.90;;;;;;5076906;28;20046;-60
2021/01/07 12:44:45;;;;;;;33.47;15.98;;;2.90;99.90;;;;;;5067532;28;20051;-59
2021/01/07 12:47:10;;;;;;;32.05;14.07;;;2.90;99.90;;;;;;5054990;28;20040;-58